WZZ442 LFPO-LHBP
Flight info
| Callsign | WZZ442 |
|---|---|
| Flight time | 1h 42m |
| Altitude | 37000 |
| Route | BUBLI DCT LUVAL DCT BEGAR DCT TRA DCT GAMSA DCT BIRGI DCT INGID DCT GOTAR DCT SIRDU DCT OGVUN DCT VAJDI |
| Aircraft | A321/M-SDE1E2E3FGIJ1J4RWXY/LB1 |
Departure
| Time | 2026-05-06 12:54 |
|---|---|
| Airport | Paris-Orly Airport (LFPO) |
Arrival
| Time | 2026-05-06 14:36 |
|---|---|
| Airport | Budapest Liszt Ferenc International Airport (LHBP) |
| Time | Latitude | Longitude | Altitude | Speed | Heading |
|---|---|---|---|---|---|
| 2026-05-06 12:24 | 48.72969 | 2.35674 | 292 ft | 0 kts | 121° |
| 2026-05-06 12:36 | 48.72969 | 2.35673 | 292 ft | 1 kts | 121° |
| 2026-05-06 12:37 | 48.72982 | 2.35641 | 298 ft | 4 kts | 121° |
| 2026-05-06 12:37 | 48.72994 | 2.35611 | 297 ft | 4 kts | 124° |
| 2026-05-06 12:37 | 48.73012 | 2.35585 | 298 ft | 4 kts | 168° |
| 2026-05-06 12:37 | 48.73034 | 2.35591 | 298 ft | 3 kts | 224° |
| 2026-05-06 12:38 | 48.73036 | 2.35595 | 295 ft | 0 kts | 226° |
| 2026-05-06 12:42 | 48.73035 | 2.35593 | 296 ft | 1 kts | 226° |
| 2026-05-06 12:42 | 48.73021 | 2.35571 | 296 ft | 5 kts | 223° |
| 2026-05-06 12:42 | 48.72987 | 2.35538 | 293 ft | 7 kts | 201° |
| 2026-05-06 12:43 | 48.72933 | 2.35513 | 297 ft | 9 kts | 209° |
| 2026-05-06 12:43 | 48.72903 | 2.35422 | 296 ft | 11 kts | 261° |
| 2026-05-06 12:43 | 48.72864 | 2.35317 | 297 ft | 13 kts | 208° |
| 2026-05-06 12:43 | 48.72772 | 2.35268 | 297 ft | 15 kts | 198° |
| 2026-05-06 12:44 | 48.72665 | 2.35271 | 296 ft | 17 kts | 164° |
| 2026-05-06 12:44 | 48.72549 | 2.35319 | 294 ft | 18 kts | 164° |
| 2026-05-06 12:44 | 48.72437 | 2.35362 | 294 ft | 15 kts | 178° |
| 2026-05-06 12:44 | 48.72381 | 2.35234 | 297 ft | 16 kts | 252° |
| 2026-05-06 12:45 | 48.72349 | 2.35060 | 292 ft | 18 kts | 255° |
| 2026-05-06 12:45 | 48.72359 | 2.34868 | 293 ft | 19 kts | 292° |
| 2026-05-06 12:45 | 48.72476 | 2.34464 | 296 ft | 22 kts | 294° |
| 2026-05-06 12:46 | 48.72541 | 2.34244 | 296 ft | 23 kts | 294° |
| 2026-05-06 12:46 | 48.72552 | 2.34039 | 295 ft | 20 kts | 250° |
| 2026-05-06 12:46 | 48.72489 | 2.33854 | 296 ft | 17 kts | 242° |
| 2026-05-06 12:46 | 48.72439 | 2.33713 | 296 ft | 16 kts | 242° |
| 2026-05-06 12:47 | 48.72383 | 2.33556 | 295 ft | 18 kts | 242° |
| 2026-05-06 12:47 | 48.72323 | 2.33385 | 298 ft | 19 kts | 242° |
| 2026-05-06 12:47 | 48.72257 | 2.33198 | 297 ft | 21 kts | 242° |
| 2026-05-06 12:47 | 48.72186 | 2.32999 | 298 ft | 22 kts | 242° |
| 2026-05-06 12:48 | 48.72112 | 2.32789 | 295 ft | 23 kts | 242° |
| 2026-05-06 12:48 | 48.72035 | 2.32569 | 296 ft | 24 kts | 242° |
| 2026-05-06 12:48 | 48.71953 | 2.32340 | 297 ft | 25 kts | 242° |
| 2026-05-06 12:48 | 48.71873 | 2.32113 | 294 ft | 12 kts | 241° |
| 2026-05-06 12:49 | 48.71835 | 2.32007 | 296 ft | 13 kts | 242° |
| 2026-05-06 12:49 | 48.71815 | 2.31895 | 294 ft | 10 kts | 271° |
| 2026-05-06 12:49 | 48.71841 | 2.31786 | 297 ft | 12 kts | 306° |
| 2026-05-06 12:49 | 48.71861 | 2.31756 | 294 ft | 0 kts | 320° |
| 2026-05-06 12:50 | 48.71862 | 2.31755 | 294 ft | 1 kts | 320° |
| 2026-05-06 12:50 | 48.71888 | 2.31735 | 297 ft | 9 kts | 338° |
| 2026-05-06 12:51 | 48.71977 | 2.31725 | 294 ft | 16 kts | 11° |
| 2026-05-06 12:51 | 48.72031 | 2.31784 | 295 ft | 9 kts | 55° |
| 2026-05-06 12:51 | 48.72048 | 2.31832 | 295 ft | 0 kts | 62° |
| 2026-05-06 12:53 | 48.72067 | 2.31886 | 293 ft | 19 kts | 62° |
| 2026-05-06 12:53 | 48.72257 | 2.32422 | 296 ft | 95 kts | 62° |
| 2026-05-06 12:53 | 48.72673 | 2.33598 | 301 ft | 155 kts | 62° |
| 2026-05-06 12:53 | 48.73211 | 2.35142 | 812 ft | 162 kts | 58° |
| 2026-05-06 12:54 | 48.73753 | 2.36671 | 1462 ft | 166 kts | 57° |
| 2026-05-06 12:54 | 48.74299 | 2.38213 | 2212 ft | 165 kts | 58° |
| 2026-05-06 12:54 | 48.74843 | 2.39751 | 2827 ft | 166 kts | 58° |
| 2026-05-06 12:54 | 48.75388 | 2.41294 | 3402 ft | 166 kts | 57° |
| 2026-05-06 12:55 | 48.75877 | 2.42961 | 3756 ft | 187 kts | 74° |
| 2026-05-06 12:55 | 48.75891 | 2.45054 | 3947 ft | 210 kts | 91° |
| 2026-05-06 12:55 | 48.75769 | 2.47365 | 4065 ft | 231 kts | 90° |
| 2026-05-06 12:55 | 48.75635 | 2.49914 | 4211 ft | 254 kts | 91° |
| 2026-05-06 12:56 | 48.75494 | 2.52656 | 4569 ft | 265 kts | 91° |
| 2026-05-06 12:56 | 48.75369 | 2.55457 | 5093 ft | 267 kts | 88° |
| 2026-05-06 12:56 | 48.75361 | 2.58275 | 5621 ft | 269 kts | 86° |
| 2026-05-06 12:56 | 48.75365 | 2.61127 | 6108 ft | 273 kts | 86° |
| 2026-05-06 12:57 | 48.75364 | 2.64008 | 6605 ft | 274 kts | 88° |
| 2026-05-06 12:57 | 48.75360 | 2.66904 | 7049 ft | 276 kts | 88° |
| 2026-05-06 12:57 | 48.75436 | 2.69824 | 7425 ft | 279 kts | 81° |
| 2026-05-06 12:57 | 48.75665 | 2.72761 | 7838 ft | 282 kts | 81° |
| 2026-05-06 12:58 | 48.75903 | 2.75726 | 8219 ft | 286 kts | 82° |
| 2026-05-06 12:58 | 48.76137 | 2.78737 | 8584 ft | 290 kts | 81° |
| 2026-05-06 12:58 | 48.76376 | 2.81789 | 8970 ft | 293 kts | 82° |
| 2026-05-06 12:58 | 48.76615 | 2.84866 | 9360 ft | 295 kts | 82° |
| 2026-05-06 12:59 | 48.76855 | 2.87979 | 9728 ft | 299 kts | 83° |
| 2026-05-06 12:59 | 48.77097 | 2.91089 | 10034 ft | 304 kts | 83° |
| 2026-05-06 12:59 | 48.77349 | 2.94324 | 10176 ft | 315 kts | 83° |
| 2026-05-06 12:59 | 48.77604 | 2.97634 | 10967 ft | 316 kts | 83° |
| 2026-05-06 13:00 | 48.77950 | 3.00887 | 11401 ft | 334 kts | 79° |
| 2026-05-06 13:00 | 48.78392 | 3.04447 | 11788 ft | 350 kts | 79° |
| 2026-05-06 13:00 | 48.78841 | 3.08110 | 12434 ft | 356 kts | 78° |
| 2026-05-06 13:00 | 48.79290 | 3.11812 | 13113 ft | 358 kts | 79° |
| 2026-05-06 13:01 | 48.79730 | 3.15534 | 13792 ft | 359 kts | 79° |
| 2026-05-06 13:01 | 48.80172 | 3.19283 | 14356 ft | 363 kts | 79° |
| 2026-05-06 13:01 | 48.80616 | 3.23063 | 14947 ft | 366 kts | 79° |
| 2026-05-06 13:01 | 48.81067 | 3.26878 | 15496 ft | 370 kts | 79° |
| 2026-05-06 13:02 | 48.81520 | 3.30747 | 16034 ft | 374 kts | 80° |
| 2026-05-06 13:02 | 48.81977 | 3.34649 | 16617 ft | 377 kts | 81° |
| 2026-05-06 13:02 | 48.82171 | 3.38635 | 17152 ft | 382 kts | 92° |
| 2026-05-06 13:02 | 48.81962 | 3.42673 | 17819 ft | 385 kts | 97° |
| 2026-05-06 13:03 | 48.81691 | 3.46735 | 18458 ft | 389 kts | 97° |
| 2026-05-06 13:03 | 48.81421 | 3.50840 | 19023 ft | 393 kts | 97° |
| 2026-05-06 13:03 | 48.81158 | 3.54980 | 19657 ft | 395 kts | 96° |
| 2026-05-06 13:03 | 48.80890 | 3.59144 | 20208 ft | 397 kts | 97° |
| 2026-05-06 13:04 | 48.80626 | 3.63332 | 20680 ft | 401 kts | 97° |
| 2026-05-06 13:04 | 48.80350 | 3.67556 | 21163 ft | 404 kts | 97° |
| 2026-05-06 13:04 | 48.80068 | 3.71805 | 21689 ft | 406 kts | 97° |
| 2026-05-06 13:04 | 48.79788 | 3.76081 | 22143 ft | 410 kts | 97° |
| 2026-05-06 13:05 | 48.79506 | 3.80400 | 22620 ft | 413 kts | 96° |
| 2026-05-06 13:05 | 48.79222 | 3.84739 | 23092 ft | 415 kts | 97° |
| 2026-05-06 13:05 | 48.78928 | 3.89118 | 23518 ft | 419 kts | 96° |
| 2026-05-06 13:05 | 48.78627 | 3.93522 | 23913 ft | 421 kts | 97° |
| 2026-05-06 13:06 | 48.78326 | 3.97942 | 24324 ft | 423 kts | 97° |
| 2026-05-06 13:06 | 48.78024 | 4.02382 | 24699 ft | 425 kts | 97° |
| 2026-05-06 13:06 | 48.77727 | 4.06846 | 25088 ft | 426 kts | 97° |
| 2026-05-06 13:06 | 48.77288 | 4.11289 | 25467 ft | 427 kts | 104° |
| 2026-05-06 13:07 | 48.76420 | 4.15589 | 25811 ft | 427 kts | 114° |
| 2026-05-06 13:07 | 48.75041 | 4.19560 | 26187 ft | 427 kts | 124° |
| 2026-05-06 13:07 | 48.73360 | 4.23197 | 26559 ft | 428 kts | 127° |
| 2026-05-06 13:07 | 48.71618 | 4.26862 | 26913 ft | 429 kts | 128° |
| 2026-05-06 13:08 | 48.70367 | 4.29512 | 27174 ft | 430 kts | 127° |
| 2026-05-06 13:08 | 48.69050 | 4.32318 | 27436 ft | 432 kts | 127° |
| 2026-05-06 13:08 | 48.67302 | 4.36024 | 27806 ft | 433 kts | 127° |
| 2026-05-06 13:08 | 48.65556 | 4.39729 | 28208 ft | 433 kts | 127° |
| 2026-05-06 13:09 | 48.63807 | 4.43432 | 28566 ft | 433 kts | 127° |
| 2026-05-06 13:09 | 48.62051 | 4.47148 | 28886 ft | 435 kts | 127° |
| 2026-05-06 13:09 | 48.60286 | 4.50865 | 29195 ft | 436 kts | 127° |
| 2026-05-06 13:09 | 48.58517 | 4.54601 | 29495 ft | 438 kts | 127° |
| 2026-05-06 13:10 | 48.56743 | 4.58342 | 29792 ft | 439 kts | 128° |
| 2026-05-06 13:10 | 48.54960 | 4.62093 | 30095 ft | 439 kts | 128° |
| 2026-05-06 13:10 | 48.53180 | 4.65829 | 30421 ft | 438 kts | 128° |
| 2026-05-06 13:10 | 48.51397 | 4.69565 | 30657 ft | 440 kts | 128° |
| 2026-05-06 13:11 | 48.49604 | 4.73317 | 30882 ft | 441 kts | 128° |
| 2026-05-06 13:11 | 48.47813 | 4.77062 | 31188 ft | 440 kts | 128° |
| 2026-05-06 13:11 | 48.46023 | 4.80800 | 31456 ft | 440 kts | 127° |
| 2026-05-06 13:11 | 48.44233 | 4.84542 | 31728 ft | 440 kts | 127° |
| 2026-05-06 13:12 | 48.42441 | 4.88286 | 31994 ft | 440 kts | 128° |
| 2026-05-06 13:12 | 48.40648 | 4.92024 | 32271 ft | 441 kts | 128° |
| 2026-05-06 13:12 | 48.38854 | 4.95767 | 32535 ft | 441 kts | 127° |
| 2026-05-06 13:12 | 48.37058 | 4.99507 | 32778 ft | 441 kts | 128° |
| 2026-05-06 13:13 | 48.35255 | 5.03239 | 33028 ft | 441 kts | 128° |
| 2026-05-06 13:13 | 48.33450 | 5.06970 | 33271 ft | 442 kts | 128° |
| 2026-05-06 13:13 | 48.31656 | 5.10712 | 33509 ft | 442 kts | 126° |
| 2026-05-06 13:13 | 48.30070 | 5.14686 | 33721 ft | 445 kts | 118° |
| 2026-05-06 13:14 | 48.28897 | 5.18992 | 33926 ft | 447 kts | 109° |
| 2026-05-06 13:14 | 48.28140 | 5.23533 | 34121 ft | 450 kts | 104° |
| 2026-05-06 13:14 | 48.27496 | 5.28131 | 34352 ft | 450 kts | 104° |
| 2026-05-06 13:14 | 48.26821 | 5.32717 | 34565 ft | 451 kts | 105° |
| 2026-05-06 13:15 | 48.26140 | 5.37309 | 34762 ft | 451 kts | 105° |
| 2026-05-06 13:15 | 48.25457 | 5.41903 | 34929 ft | 452 kts | 105° |
| 2026-05-06 13:15 | 48.24765 | 5.46506 | 35092 ft | 452 kts | 105° |
| 2026-05-06 13:15 | 48.24072 | 5.51103 | 35259 ft | 453 kts | 105° |
| 2026-05-06 13:16 | 48.23380 | 5.55708 | 35434 ft | 453 kts | 105° |
| 2026-05-06 13:16 | 48.22689 | 5.60258 | 35567 ft | 454 kts | 105° |
| 2026-05-06 13:16 | 48.21985 | 5.64938 | 35727 ft | 454 kts | 105° |
| 2026-05-06 13:16 | 48.21286 | 5.69560 | 35887 ft | 455 kts | 105° |
| 2026-05-06 13:17 | 48.20597 | 5.74123 | 36075 ft | 455 kts | 105° |
| 2026-05-06 13:17 | 48.19888 | 5.78750 | 36231 ft | 455 kts | 105° |
| 2026-05-06 13:17 | 48.19174 | 5.83369 | 36399 ft | 456 kts | 106° |
| 2026-05-06 13:17 | 48.18444 | 5.88063 | 36556 ft | 456 kts | 106° |
| 2026-05-06 13:18 | 48.17737 | 5.92632 | 36704 ft | 456 kts | 105° |
| 2026-05-06 13:18 | 48.16300 | 6.01898 | 36816 ft | 457 kts | 106° |
| 2026-05-06 13:19 | 48.14850 | 6.11188 | 36835 ft | 458 kts | 106° |
| 2026-05-06 13:19 | 48.13404 | 6.20477 | 36845 ft | 458 kts | 106° |
| 2026-05-06 13:20 | 48.11944 | 6.29754 | 36847 ft | 458 kts | 106° |
| 2026-05-06 13:20 | 48.10476 | 6.39028 | 36850 ft | 458 kts | 106° |
| 2026-05-06 13:21 | 48.09001 | 6.48310 | 36844 ft | 459 kts | 107° |
| 2026-05-06 13:21 | 48.07506 | 6.57595 | 36856 ft | 460 kts | 107° |
| 2026-05-06 13:22 | 48.06012 | 6.66910 | 36861 ft | 461 kts | 107° |
| 2026-05-06 13:22 | 48.04763 | 6.74650 | 36856 ft | 461 kts | 107° |
| 2026-05-06 13:23 | 48.03230 | 6.83957 | 36839 ft | 462 kts | 107° |
| 2026-05-06 13:23 | 48.01711 | 6.93277 | 36841 ft | 462 kts | 108° |
| 2026-05-06 13:24 | 48.00181 | 7.02620 | 36848 ft | 463 kts | 108° |
| 2026-05-06 13:24 | 47.98622 | 7.11960 | 36852 ft | 464 kts | 108° |
| 2026-05-06 13:25 | 47.97084 | 7.21318 | 36852 ft | 464 kts | 108° |
| 2026-05-06 13:25 | 47.95514 | 7.30650 | 36840 ft | 464 kts | 108° |
| 2026-05-06 13:26 | 47.93948 | 7.39990 | 36843 ft | 464 kts | 108° |
| 2026-05-06 13:26 | 47.92369 | 7.49326 | 36850 ft | 464 kts | 109° |
| 2026-05-06 13:27 | 47.90734 | 7.58633 | 36857 ft | 463 kts | 112° |
| 2026-05-06 13:27 | 47.88518 | 7.67529 | 36851 ft | 461 kts | 115° |
| 2026-05-06 13:28 | 47.86245 | 7.76471 | 36866 ft | 461 kts | 115° |
| 2026-05-06 13:28 | 47.83984 | 7.85397 | 36863 ft | 460 kts | 115° |
| 2026-05-06 13:29 | 47.81712 | 7.94299 | 36863 ft | 460 kts | 115° |
| 2026-05-06 13:29 | 47.79429 | 8.03193 | 36865 ft | 461 kts | 115° |
| 2026-05-06 13:30 | 47.77151 | 8.12103 | 36867 ft | 461 kts | 115° |
| 2026-05-06 13:30 | 47.74851 | 8.20990 | 36873 ft | 461 kts | 116° |
| 2026-05-06 13:31 | 47.72545 | 8.29863 | 36872 ft | 460 kts | 116° |
| 2026-05-06 13:31 | 47.70237 | 8.38725 | 36861 ft | 460 kts | 116° |
| 2026-05-06 13:32 | 47.68021 | 8.47649 | 36854 ft | 463 kts | 112° |
| 2026-05-06 13:32 | 47.66014 | 8.56732 | 36860 ft | 463 kts | 113° |
| 2026-05-06 13:33 | 47.63946 | 8.65798 | 36877 ft | 464 kts | 113° |
| 2026-05-06 13:33 | 47.61884 | 8.74867 | 36876 ft | 465 kts | 113° |
| 2026-05-06 13:34 | 47.59810 | 8.83938 | 36846 ft | 465 kts | 113° |
| 2026-05-06 13:34 | 47.57734 | 8.93002 | 36861 ft | 465 kts | 113° |
| 2026-05-06 13:35 | 47.55645 | 9.02069 | 36860 ft | 465 kts | 114° |
| 2026-05-06 13:35 | 47.53550 | 9.11136 | 36857 ft | 466 kts | 114° |
| 2026-05-06 13:36 | 47.51451 | 9.20138 | 36865 ft | 466 kts | 114° |
| 2026-05-06 13:36 | 47.49329 | 9.29188 | 36856 ft | 466 kts | 114° |
| 2026-05-06 13:37 | 47.47207 | 9.38244 | 36829 ft | 466 kts | 114° |
| 2026-05-06 13:37 | 47.45087 | 9.47293 | 36826 ft | 466 kts | 114° |
| 2026-05-06 13:38 | 47.42945 | 9.56325 | 36829 ft | 466 kts | 114° |
| 2026-05-06 13:38 | 47.41041 | 9.65500 | 36809 ft | 473 kts | 104° |
| 2026-05-06 13:39 | 47.40645 | 9.75281 | 36836 ft | 479 kts | 95° |
| 2026-05-06 13:39 | 47.40486 | 9.85103 | 36835 ft | 478 kts | 96° |
| 2026-05-06 13:40 | 47.40313 | 9.94901 | 36833 ft | 477 kts | 96° |
| 2026-05-06 13:40 | 47.40118 | 10.04691 | 36793 ft | 477 kts | 96° |
| 2026-05-06 13:41 | 47.39922 | 10.14489 | 36818 ft | 478 kts | 96° |
| 2026-05-06 13:41 | 47.39703 | 10.24294 | 36813 ft | 478 kts | 96° |
| 2026-05-06 13:42 | 47.39476 | 10.34096 | 36821 ft | 479 kts | 96° |
| 2026-05-06 13:42 | 47.39254 | 10.43907 | 36813 ft | 478 kts | 96° |
| 2026-05-06 13:43 | 47.39016 | 10.53635 | 36785 ft | 477 kts | 97° |
| 2026-05-06 13:43 | 47.38768 | 10.63426 | 36796 ft | 477 kts | 96° |
| 2026-05-06 13:44 | 47.38521 | 10.73206 | 36778 ft | 476 kts | 97° |
| 2026-05-06 13:44 | 47.38256 | 10.82990 | 36792 ft | 477 kts | 97° |
| 2026-05-06 13:45 | 47.37989 | 10.92771 | 36769 ft | 477 kts | 97° |
| 2026-05-06 13:45 | 47.37581 | 11.07414 | 36764 ft | 477 kts | 97° |
| 2026-05-06 13:46 | 47.37286 | 11.17179 | 36762 ft | 476 kts | 97° |
| 2026-05-06 13:46 | 47.36985 | 11.26942 | 36795 ft | 476 kts | 97° |
| 2026-05-06 13:47 | 47.36681 | 11.36710 | 36770 ft | 477 kts | 98° |
| 2026-05-06 13:47 | 47.36370 | 11.46497 | 36768 ft | 478 kts | 98° |
| 2026-05-06 13:48 | 47.36044 | 11.56300 | 36776 ft | 479 kts | 98° |
| 2026-05-06 13:48 | 47.35705 | 11.66118 | 36778 ft | 480 kts | 98° |
| 2026-05-06 13:49 | 47.35366 | 11.75938 | 36758 ft | 479 kts | 98° |
| 2026-05-06 13:49 | 47.35009 | 11.85750 | 36777 ft | 479 kts | 98° |
| 2026-05-06 13:50 | 47.34655 | 11.95566 | 36773 ft | 479 kts | 99° |
| 2026-05-06 13:50 | 47.34288 | 12.05363 | 36790 ft | 478 kts | 99° |
| 2026-05-06 13:51 | 47.33908 | 12.15110 | 36766 ft | 476 kts | 99° |
| 2026-05-06 13:51 | 47.33525 | 12.24853 | 36768 ft | 476 kts | 99° |
| 2026-05-06 13:52 | 47.33134 | 12.34571 | 36764 ft | 474 kts | 99° |
| 2026-05-06 13:52 | 47.32729 | 12.44227 | 36764 ft | 475 kts | 99° |
| 2026-05-06 13:53 | 47.32313 | 12.53958 | 36748 ft | 477 kts | 99° |
| 2026-05-06 13:53 | 47.31898 | 12.63713 | 36765 ft | 477 kts | 99° |
| 2026-05-06 13:54 | 47.31469 | 12.73485 | 36774 ft | 478 kts | 99° |
| 2026-05-06 13:54 | 47.31024 | 12.83275 | 36779 ft | 479 kts | 99° |
| 2026-05-06 13:55 | 47.30579 | 12.93062 | 36792 ft | 479 kts | 99° |
| 2026-05-06 13:55 | 47.30128 | 13.02861 | 36795 ft | 479 kts | 100° |
| 2026-05-06 13:56 | 47.29654 | 13.12659 | 36799 ft | 480 kts | 100° |
| 2026-05-06 13:56 | 47.29190 | 13.22460 | 36825 ft | 480 kts | 100° |
| 2026-05-06 13:57 | 47.28705 | 13.32265 | 36814 ft | 480 kts | 100° |
| 2026-05-06 13:57 | 47.28218 | 13.42075 | 36795 ft | 480 kts | 99° |
| 2026-05-06 13:58 | 47.27710 | 13.51871 | 36812 ft | 480 kts | 99° |
| 2026-05-06 13:58 | 47.27212 | 13.61676 | 36848 ft | 480 kts | 99° |
| 2026-05-06 13:59 | 47.26596 | 13.71445 | 36860 ft | 477 kts | 103° |
| 2026-05-06 13:59 | 47.25653 | 13.81110 | 36835 ft | 477 kts | 103° |
| 2026-05-06 14:00 | 47.24709 | 13.90771 | 36861 ft | 477 kts | 103° |
| 2026-05-06 14:00 | 47.23777 | 14.00366 | 36872 ft | 477 kts | 103° |
| 2026-05-06 14:01 | 47.22823 | 14.10023 | 36882 ft | 477 kts | 103° |
| 2026-05-06 14:01 | 47.21877 | 14.19669 | 36853 ft | 476 kts | 103° |
| 2026-05-06 14:02 | 47.20910 | 14.29295 | 36868 ft | 476 kts | 103° |
| 2026-05-06 14:02 | 47.19941 | 14.38926 | 36879 ft | 476 kts | 103° |
| 2026-05-06 14:03 | 47.18964 | 14.48558 | 36878 ft | 477 kts | 103° |
| 2026-05-06 14:03 | 47.17962 | 14.58188 | 36881 ft | 476 kts | 103° |
| 2026-05-06 14:04 | 47.16974 | 14.67819 | 36864 ft | 477 kts | 103° |
| 2026-05-06 14:04 | 47.15961 | 14.77445 | 36875 ft | 477 kts | 103° |
| 2026-05-06 14:05 | 47.14948 | 14.87074 | 36881 ft | 477 kts | 103° |
| 2026-05-06 14:05 | 47.13931 | 14.96708 | 36887 ft | 477 kts | 104° |
| 2026-05-06 14:06 | 47.12898 | 15.06336 | 36887 ft | 478 kts | 103° |
| 2026-05-06 14:06 | 47.11860 | 15.15961 | 36898 ft | 477 kts | 103° |
| 2026-05-06 14:07 | 47.10811 | 15.25578 | 36892 ft | 477 kts | 103° |
| 2026-05-06 14:07 | 47.09750 | 15.35190 | 36877 ft | 477 kts | 103° |
| 2026-05-06 14:08 | 47.08692 | 15.44801 | 36864 ft | 477 kts | 103° |
| 2026-05-06 14:08 | 47.07614 | 15.54404 | 36883 ft | 477 kts | 103° |
| 2026-05-06 14:09 | 47.06548 | 15.63938 | 36891 ft | 477 kts | 103° |
| 2026-05-06 14:09 | 47.05465 | 15.73528 | 36894 ft | 476 kts | 103° |
| 2026-05-06 14:10 | 47.04367 | 15.83101 | 36886 ft | 476 kts | 103° |
| 2026-05-06 14:10 | 47.03271 | 15.92672 | 36893 ft | 476 kts | 103° |
| 2026-05-06 14:11 | 47.02161 | 16.02234 | 36904 ft | 476 kts | 103° |
| 2026-05-06 14:11 | 47.01047 | 16.11803 | 36906 ft | 476 kts | 103° |
| 2026-05-06 14:12 | 47.00463 | 16.21484 | 36901 ft | 481 kts | 90° |
| 2026-05-06 14:12 | 47.00852 | 16.26364 | 36899 ft | 485 kts | 79° |
| 2026-05-06 14:12 | 47.01783 | 16.31116 | 36915 ft | 486 kts | 71° |
| 2026-05-06 14:13 | 47.03680 | 16.38878 | 36907 ft | 487 kts | 71° |
| 2026-05-06 14:13 | 47.05901 | 16.48274 | 36893 ft | 488 kts | 72° |
| 2026-05-06 14:14 | 47.06994 | 16.52959 | 36367 ft | 484 kts | 72° |
| 2026-05-06 14:14 | 47.08091 | 16.57652 | 35023 ft | 491 kts | 72° |
| 2026-05-06 14:14 | 47.09208 | 16.62454 | 33589 ft | 501 kts | 71° |
| 2026-05-06 14:14 | 47.10341 | 16.67279 | 32411 ft | 500 kts | 71° |
| 2026-05-06 14:15 | 47.11448 | 16.72059 | 31790 ft | 486 kts | 72° |
| 2026-05-06 14:15 | 47.12520 | 16.76659 | 31446 ft | 468 kts | 71° |
| 2026-05-06 14:15 | 47.13567 | 16.81130 | 30877 ft | 459 kts | 72° |
| 2026-05-06 14:15 | 47.14590 | 16.85549 | 30358 ft | 456 kts | 72° |
| 2026-05-06 14:16 | 47.15597 | 16.89946 | 29836 ft | 453 kts | 72° |
| 2026-05-06 14:16 | 47.16600 | 16.94307 | 29298 ft | 448 kts | 72° |
| 2026-05-06 14:16 | 47.17593 | 16.98618 | 28835 ft | 442 kts | 72° |
| 2026-05-06 14:16 | 47.18573 | 17.02875 | 28328 ft | 438 kts | 72° |
| 2026-05-06 14:17 | 47.19540 | 17.07094 | 27854 ft | 434 kts | 72° |
| 2026-05-06 14:17 | 47.20498 | 17.11281 | 27364 ft | 430 kts | 72° |
| 2026-05-06 14:17 | 47.21445 | 17.15438 | 26890 ft | 427 kts | 73° |
| 2026-05-06 14:17 | 47.22382 | 17.19562 | 26398 ft | 424 kts | 72° |
| 2026-05-06 14:18 | 47.23311 | 17.23659 | 25928 ft | 421 kts | 72° |
| 2026-05-06 14:18 | 47.24231 | 17.27738 | 25459 ft | 419 kts | 72° |
| 2026-05-06 14:18 | 47.25149 | 17.31786 | 24982 ft | 416 kts | 72° |
| 2026-05-06 14:18 | 47.26097 | 17.35796 | 24495 ft | 414 kts | 70° |
| 2026-05-06 14:19 | 47.27114 | 17.39753 | 24030 ft | 412 kts | 70° |
| 2026-05-06 14:19 | 47.28108 | 17.43689 | 23556 ft | 409 kts | 70° |
| 2026-05-06 14:19 | 47.29084 | 17.47561 | 23034 ft | 407 kts | 70° |
| 2026-05-06 14:19 | 47.30059 | 17.51448 | 22574 ft | 402 kts | 70° |
| 2026-05-06 14:20 | 47.31013 | 17.55296 | 22089 ft | 398 kts | 71° |
| 2026-05-06 14:20 | 47.31959 | 17.59100 | 21628 ft | 393 kts | 71° |
| 2026-05-06 14:20 | 47.32891 | 17.62854 | 21158 ft | 388 kts | 71° |
| 2026-05-06 14:20 | 47.33810 | 17.66572 | 20691 ft | 384 kts | 71° |
| 2026-05-06 14:21 | 47.34721 | 17.70254 | 20221 ft | 381 kts | 71° |
| 2026-05-06 14:21 | 47.35626 | 17.73897 | 19777 ft | 377 kts | 71° |
| 2026-05-06 14:21 | 47.36521 | 17.77510 | 19296 ft | 374 kts | 71° |
| 2026-05-06 14:21 | 47.37410 | 17.81105 | 18841 ft | 371 kts | 71° |
| 2026-05-06 14:22 | 47.38164 | 17.84725 | 18374 ft | 367 kts | 81° |
| 2026-05-06 14:22 | 47.38442 | 17.88435 | 17869 ft | 362 kts | 92° |
| 2026-05-06 14:22 | 47.38388 | 17.92120 | 17397 ft | 357 kts | 95° |
| 2026-05-06 14:22 | 47.38302 | 17.95768 | 16937 ft | 354 kts | 95° |
| 2026-05-06 14:23 | 47.38227 | 17.99383 | 16476 ft | 351 kts | 95° |
| 2026-05-06 14:23 | 47.38150 | 18.02972 | 16012 ft | 349 kts | 95° |
| 2026-05-06 14:23 | 47.38068 | 18.06535 | 15550 ft | 346 kts | 95° |
| 2026-05-06 14:23 | 47.37983 | 18.10078 | 15083 ft | 345 kts | 95° |
| 2026-05-06 14:24 | 47.37896 | 18.13598 | 14615 ft | 343 kts | 95° |
| 2026-05-06 14:24 | 47.37822 | 18.17107 | 14144 ft | 341 kts | 95° |
| 2026-05-06 14:24 | 47.37743 | 18.20602 | 13687 ft | 340 kts | 95° |
| 2026-05-06 14:24 | 47.37662 | 18.24075 | 13235 ft | 337 kts | 95° |
| 2026-05-06 14:25 | 47.37698 | 18.27511 | 12840 ft | 334 kts | 85° |
| 2026-05-06 14:25 | 47.38203 | 18.30847 | 12407 ft | 334 kts | 72° |
| 2026-05-06 14:25 | 47.39059 | 18.34024 | 11975 ft | 332 kts | 68° |
| 2026-05-06 14:25 | 47.39950 | 18.37151 | 11531 ft | 330 kts | 69° |
| 2026-05-06 14:26 | 47.40827 | 18.40269 | 11105 ft | 328 kts | 69° |
| 2026-05-06 14:26 | 47.41698 | 18.43381 | 10674 ft | 327 kts | 69° |
| 2026-05-06 14:26 | 47.42566 | 18.46481 | 10243 ft | 326 kts | 70° |
| 2026-05-06 14:26 | 47.43421 | 18.49546 | 10010 ft | 318 kts | 70° |
| 2026-05-06 14:27 | 47.44248 | 18.52518 | 9766 ft | 311 kts | 70° |
| 2026-05-06 14:27 | 47.45070 | 18.55468 | 9330 ft | 310 kts | 70° |
| 2026-05-06 14:27 | 47.45889 | 18.58406 | 8955 ft | 308 kts | 70° |
| 2026-05-06 14:27 | 47.46700 | 18.61329 | 8574 ft | 306 kts | 70° |
| 2026-05-06 14:28 | 47.47492 | 18.64198 | 8202 ft | 305 kts | 70° |
| 2026-05-06 14:28 | 47.48296 | 18.67122 | 7993 ft | 302 kts | 70° |
| 2026-05-06 14:28 | 47.49088 | 18.69998 | 7976 ft | 302 kts | 70° |
| 2026-05-06 14:28 | 47.49872 | 18.72839 | 7574 ft | 304 kts | 70° |
| 2026-05-06 14:29 | 47.50675 | 18.75725 | 7162 ft | 303 kts | 70° |
| 2026-05-06 14:29 | 47.51468 | 18.78604 | 6780 ft | 301 kts | 70° |
| 2026-05-06 14:29 | 47.52251 | 18.81465 | 6407 ft | 299 kts | 71° |
| 2026-05-06 14:29 | 47.53033 | 18.84321 | 6005 ft | 299 kts | 71° |
| 2026-05-06 14:30 | 47.53830 | 18.87112 | 5850 ft | 289 kts | 65° |
| 2026-05-06 14:30 | 47.54935 | 18.89521 | 5572 ft | 281 kts | 49° |
| 2026-05-06 14:30 | 47.56342 | 18.91523 | 5123 ft | 279 kts | 43° |
| 2026-05-06 14:30 | 47.57774 | 18.93425 | 4813 ft | 272 kts | 43° |
| 2026-05-06 14:31 | 47.58862 | 18.95557 | 4747 ft | 251 kts | 73° |
| 2026-05-06 14:31 | 47.59069 | 18.97973 | 4666 ft | 229 kts | 106° |
| 2026-05-06 14:31 | 47.58410 | 18.99997 | 4341 ft | 213 kts | 135° |
| 2026-05-06 14:31 | 47.57441 | 19.01627 | 4065 ft | 209 kts | 139° |
| 2026-05-06 14:32 | 47.56470 | 19.03216 | 3786 ft | 206 kts | 138° |
| 2026-05-06 14:32 | 47.55514 | 19.04776 | 3527 ft | 203 kts | 137° |
| 2026-05-06 14:32 | 47.54584 | 19.06291 | 3288 ft | 194 kts | 139° |
| 2026-05-06 14:32 | 47.53696 | 19.07741 | 3016 ft | 186 kts | 139° |
| 2026-05-06 14:33 | 47.52845 | 19.09132 | 2773 ft | 178 kts | 139° |
| 2026-05-06 14:33 | 47.52028 | 19.10462 | 2548 ft | 171 kts | 140° |
| 2026-05-06 14:33 | 47.51244 | 19.11738 | 2333 ft | 164 kts | 140° |
| 2026-05-06 14:33 | 47.50491 | 19.12960 | 2117 ft | 157 kts | 139° |
| 2026-05-06 14:34 | 47.49778 | 19.14120 | 1908 ft | 150 kts | 140° |
| 2026-05-06 14:34 | 47.49077 | 19.15254 | 1718 ft | 150 kts | 138° |
| 2026-05-06 14:34 | 47.48376 | 19.16390 | 1527 ft | 147 kts | 140° |
| 2026-05-06 14:34 | 47.47689 | 19.17504 | 1329 ft | 146 kts | 139° |
| 2026-05-06 14:35 | 47.46996 | 19.18626 | 1119 ft | 149 kts | 142° |
| 2026-05-06 14:35 | 47.46303 | 19.19749 | 924 ft | 151 kts | 140° |
| 2026-05-06 14:35 | 47.45592 | 19.20902 | 720 ft | 153 kts | 141° |
| 2026-05-06 14:35 | 47.44876 | 19.22073 | 517 ft | 153 kts | 139° |
| 2026-05-06 14:36 | 47.44200 | 19.23158 | 454 ft | 126 kts | 134° |
| 2026-05-06 14:36 | 47.43695 | 19.23980 | 454 ft | 92 kts | 132° |
| 2026-05-06 14:36 | 47.43384 | 19.24484 | 452 ft | 54 kts | 134° |
| 2026-05-06 14:36 | 47.43203 | 19.24775 | 456 ft | 30 kts | 132° |
| 2026-05-06 14:37 | 47.43097 | 19.24977 | 457 ft | 17 kts | 100° |
| 2026-05-06 14:37 | 47.43154 | 19.25133 | 457 ft | 19 kts | 43° |
| 2026-05-06 14:37 | 47.43256 | 19.25270 | 457 ft | 21 kts | 43° |
| 2026-05-06 14:37 | 47.43366 | 19.25416 | 457 ft | 22 kts | 41° |
| 2026-05-06 14:38 | 47.43482 | 19.25574 | 457 ft | 23 kts | 43° |
| 2026-05-06 14:38 | 47.43605 | 19.25738 | 457 ft | 24 kts | 42° |
| 2026-05-06 14:38 | 47.43724 | 19.25899 | 457 ft | 15 kts | 45° |
| 2026-05-06 14:38 | 47.43704 | 19.26023 | 457 ft | 15 kts | 133° |
| 2026-05-06 14:39 | 47.43677 | 19.26181 | 457 ft | 17 kts | 88° |
| 2026-05-06 14:39 | 47.43662 | 19.26347 | 457 ft | 15 kts | 119° |
| 2026-05-06 14:39 | 47.43592 | 19.26468 | 458 ft | 16 kts | 133° |
| 2026-05-06 14:39 | 47.43512 | 19.26598 | 458 ft | 16 kts | 132° |
| 2026-05-06 14:40 | 47.43472 | 19.26662 | 458 ft | 8 kts | 134° |
| 2026-05-06 14:40 | 47.43444 | 19.26656 | 455 ft | 2 kts | 243° |
| 2026-05-06 14:40 | 47.43431 | 19.26627 | 457 ft | 5 kts | 224° |
| 2026-05-06 14:40 | 47.43424 | 19.26617 | 457 ft | 0 kts | 224° |